Главная страница
METAR-TAF:

METAR-TAF

Аэропорты :

Олесунн, Норвегия

широта: 62-34N, долгота: 006-07E, высота над уровнем моря: 2 м

Текущие метеонаблюдения

Эта сводка был подготовлена 17 минут назад, в 05:20 UTC
Ветер 5 Узел от южный, изменяющийся между юго-восточный и юго-западный
Температура 10°C
Влажность 87%
Давление 992 hPa
Видимость 10 км и более
небольшой дождь

METAR: ENAL 210520Z 18005KT 130V230 9999 -RA VV019 10/08 Q0992

Время: 07:37 (05:37 UTC)

Прогноз

Эта сводка был подготовлена 3 часа и 37 минут назад, в 02:00 UTC
Прогноз действительный с 21-го 03 UTC до 21-го 12 UTC
Ветер 12 Узел от южный-юго-западный
Видимость 10 км и более
небольшая облачность на высоте 2500 фута
Рассеянная облачность на высоте 4000 фута
изменения
С 21-го 05 UTC до 21-го 07 UTC
Ветер 7 Узел от юго-восточный
изменения
С 21-го 08 UTC до 21-го 10 UTC
Ветер 15 Узел от северо-восточный

TAF: ENAL 210200Z 2103/2112 20012KT 9999 FEW025 BKN040 BECMG 2105/2107 14007KT BECMG 2108/2110 05015KT

Метеонаблюдения и прогнозы для более 4000 аэропортов (сводки METAR и TAF).

Имеющиеся станции представлены на карте желтыми и красными точками.

Чтобы увидеть название станции, наведите на нее мышь.

Затем щелкните, чтобы увидеть метеонаблюдения и метеопрогнозы.

Управление картой: чтобы увеличить масштаб, щелкните зеленые кнопки с черным крестиком; чтобы уменьшить масштаб, щелкните зеленую кнопку с тире; для просмотра соседних карт щелкайте зеленые стрелки.


METAR-TAF: